sensor_id;sensor_type;location;lat;lon;timestamp;pressure;altitude;pressure_sealevel;temperature;humidity
20077;BME280;12348;42.710;23.378;2023-08-24T00:01:22;95232.50;;;22.11;100.00
20077;BME280;12348;42.710;23.378;2023-08-24T00:03:49;95230.97;;;21.94;100.00
20077;BME280;12348;42.710;23.378;2023-08-24T00:06:15;95236.84;;;21.77;100.00
20077;BME280;12348;42.710;23.378;2023-08-24T00:08:43;95233.97;;;21.70;100.00
20077;BME280;12348;42.710;23.378;2023-08-24T00:11:10;95230.63;;;21.61;100.00
20077;BME280;12348;42.710;23.378;2023-08-24T00:13:41;95230.56;;;21.57;100.00
20077;BME280;12348;42.710;23.378;2023-08-24T00:16:11;95227.66;;;21.50;100.00
20077;BME280;12348;42.710;23.378;2023-08-24T00:18:39;95223.44;;;21.37;100.00
20077;BME280;12348;42.710;23.378;2023-08-24T00:21:06;95213.78;;;21.27;100.00
20077;BME280;12348;42.710;23.378;2023-08-24T00:23:33;95209.72;;;21.21;100.00
20077;BME280;12348;42.710;23.378;2023-08-24T00:26:00;95206.09;;;21.17;100.00
20077;BME280;12348;42.710;23.378;2023-08-24T00:28:27;95220.69;;;21.21;100.00
20077;BME280;12348;42.710;23.378;2023-08-24T00:30:55;95228.75;;;21.14;100.00
20077;BME280;12348;42.710;23.378;2023-08-24T00:33:21;95234.28;;;21.17;100.00
20077;BME280;12348;42.710;23.378;2023-08-24T00:35:48;95237.94;;;21.21;100.00
20077;BME280;12348;42.710;23.378;2023-08-24T00:38:15;95231.81;;;21.12;100.00
20077;BME280;12348;42.710;23.378;2023-08-24T00:40:42;95231.94;;;21.00;100.00
20077;BME280;12348;42.710;23.378;2023-08-24T00:43:09;95224.06;;;20.98;100.00
20077;BME280;12348;42.710;23.378;2023-08-24T00:45:36;95230.06;;;20.88;100.00
20077;BME280;12348;42.710;23.378;2023-08-24T00:48:05;95228.66;;;20.78;100.00
20077;BME280;12348;42.710;23.378;2023-08-24T00:50:32;95232.09;;;20.75;100.00
20077;BME280;12348;42.710;23.378;2023-08-24T00:52:58;95227.19;;;20.53;100.00
20077;BME280;12348;42.710;23.378;2023-08-24T00:55:25;95234.25;;;20.26;100.00
20077;BME280;12348;42.710;23.378;2023-08-24T00:57:52;95237.78;;;20.26;100.00
20077;BME280;12348;42.710;23.378;2023-08-24T01:00:19;95230.63;;;20.22;100.00
20077;BME280;12348;42.710;23.378;2023-08-24T01:02:46;95219.97;;;20.17;100.00
20077;BME280;12348;42.710;23.378;2023-08-24T01:05:14;95220.41;;;20.19;100.00
20077;BME280;12348;42.710;23.378;2023-08-24T01:07:41;95227.91;;;20.22;100.00
20077;BME280;12348;42.710;23.378;2023-08-24T01:10:10;95227.59;;;20.39;100.00
20077;BME280;12348;42.710;23.378;2023-08-24T01:12:47;95225.47;;;20.32;100.00
20077;BME280;12348;42.710;23.378;2023-08-24T01:15:19;95222.97;;;20.55;100.00
20077;BME280;12348;42.710;23.378;2023-08-24T01:17:50;95221.50;;;20.46;100.00
20077;BME280;12348;42.710;23.378;2023-08-24T01:20:18;95221.78;;;20.41;100.00
20077;BME280;12348;42.710;23.378;2023-08-24T01:22:53;95220.63;;;20.42;100.00
20077;BME280;12348;42.710;23.378;2023-08-24T01:25:32;95236.03;;;20.34;100.00
20077;BME280;12348;42.710;23.378;2023-08-24T01:28:05;95242.47;;;20.26;100.00
20077;BME280;12348;42.710;23.378;2023-08-24T01:30:33;95238.47;;;20.23;100.00
20077;BME280;12348;42.710;23.378;2023-08-24T01:33:02;95235.00;;;20.10;100.00
20077;BME280;12348;42.710;23.378;2023-08-24T01:35:29;95244.59;;;20.04;100.00
20077;BME280;12348;42.710;23.378;2023-08-24T01:37:56;95225.97;;;19.94;100.00
20077;BME280;12348;42.710;23.378;2023-08-24T01:40:44;95231.47;;;19.82;100.00
20077;BME280;12348;42.710;23.378;2023-08-24T01:43:15;95231.59;;;19.73;100.00
20077;BME280;12348;42.710;23.378;2023-08-24T01:45:44;95233.66;;;19.64;100.00
20077;BME280;12348;42.710;23.378;2023-08-24T01:48:12;95231.75;;;19.65;100.00
20077;BME280;12348;42.710;23.378;2023-08-24T01:50:40;95236.28;;;19.60;100.00
20077;BME280;12348;42.710;23.378;2023-08-24T01:53:08;95235.81;;;19.58;100.00
20077;BME280;12348;42.710;23.378;2023-08-24T01:55:35;95241.75;;;19.60;100.00
20077;BME280;12348;42.710;23.378;2023-08-24T01:58:02;95243.09;;;19.54;100.00
20077;BME280;12348;42.710;23.378;2023-08-24T02:00:30;95237.66;;;19.54;100.00
20077;BME280;12348;42.710;23.378;2023-08-24T02:02:57;95243.47;;;19.65;100.00
20077;BME280;12348;42.710;23.378;2023-08-24T02:05:24;95237.75;;;19.70;100.00
20077;BME280;12348;42.710;23.378;2023-08-24T02:07:53;95236.59;;;19.71;100.00
20077;BME280;12348;42.710;23.378;2023-08-24T02:10:20;95238.88;;;19.81;100.00
20077;BME280;12348;42.710;23.378;2023-08-24T02:12:47;95233.75;;;19.80;100.00
20077;BME280;12348;42.710;23.378;2023-08-24T02:15:13;95240.31;;;19.91;100.00
20077;BME280;12348;42.710;23.378;2023-08-24T02:17:43;95241.22;;;19.95;100.00
20077;BME280;12348;42.710;23.378;2023-08-24T02:20:10;95249.22;;;19.88;100.00
20077;BME280;12348;42.710;23.378;2023-08-24T02:22:38;95245.09;;;19.94;100.00
20077;BME280;12348;42.710;23.378;2023-08-24T02:25:05;95252.16;;;19.95;100.00
20077;BME280;12348;42.710;23.378;2023-08-24T02:27:33;95242.13;;;19.99;100.00
20077;BME280;12348;42.710;23.378;2023-08-24T02:30:00;95243.69;;;20.00;100.00
20077;BME280;12348;42.710;23.378;2023-08-24T02:32:27;95235.97;;;20.02;100.00
20077;BME280;12348;42.710;23.378;2023-08-24T02:34:55;95236.84;;;20.06;100.00
20077;BME280;12348;42.710;23.378;2023-08-24T02:37:22;95225.13;;;20.06;100.00
20077;BME280;12348;42.710;23.378;2023-08-24T02:39:49;95225.66;;;20.12;100.00
20077;BME280;12348;42.710;23.378;2023-08-24T02:42:16;95229.09;;;20.08;100.00
20077;BME280;12348;42.710;23.378;2023-08-24T02:44:42;95226.81;;;20.10;100.00
20077;BME280;12348;42.710;23.378;2023-08-24T02:47:09;95224.41;;;20.09;100.00
20077;BME280;12348;42.710;23.378;2023-08-24T02:49:36;95219.88;;;20.13;100.00
20077;BME280;12348;42.710;23.378;2023-08-24T02:52:06;95227.59;;;20.11;100.00
20077;BME280;12348;42.710;23.378;2023-08-24T02:54:33;95228.97;;;20.17;100.00
20077;BME280;12348;42.710;23.378;2023-08-24T02:57:00;95239.22;;;20.08;100.00
20077;BME280;12348;42.710;23.378;2023-08-24T03:01:53;95253.25;;;20.06;100.00
20077;BME280;12348;42.710;23.378;2023-08-24T03:04:19;95234.19;;;19.94;100.00
20077;BME280;12348;42.710;23.378;2023-08-24T03:06:46;95241.00;;;19.88;100.00
20077;BME280;12348;42.710;23.378;2023-08-24T03:09:15;95240.16;;;19.72;100.00
20077;BME280;12348;42.710;23.378;2023-08-24T03:11:42;95249.00;;;19.56;100.00
20077;BME280;12348;42.710;23.378;2023-08-24T03:14:09;95254.97;;;19.46;100.00
20077;BME280;12348;42.710;23.378;2023-08-24T03:16:37;95246.53;;;19.51;100.00
20077;BME280;12348;42.710;23.378;2023-08-24T03:19:04;95245.38;;;19.52;100.00
20077;BME280;12348;42.710;23.378;2023-08-24T03:21:31;95246.75;;;19.46;100.00
20077;BME280;12348;42.710;23.378;2023-08-24T03:23:58;95254.50;;;19.44;100.00
20077;BME280;12348;42.710;23.378;2023-08-24T03:26:31;95253.72;;;19.31;100.00
20077;BME280;12348;42.710;23.378;2023-08-24T03:28:58;95257.34;;;19.35;100.00
20077;BME280;12348;42.710;23.378;2023-08-24T03:31:24;95256.09;;;19.33;100.00
20077;BME280;12348;42.710;23.378;2023-08-24T03:33:51;95257.13;;;19.28;100.00
20077;BME280;12348;42.710;23.378;2023-08-24T03:36:18;95257.13;;;19.28;100.00
20077;BME280;12348;42.710;23.378;2023-08-24T03:38:45;95265.19;;;19.37;100.00
20077;BME280;12348;42.710;23.378;2023-08-24T03:41:11;95271.78;;;19.36;100.00
20077;BME280;12348;42.710;23.378;2023-08-24T03:43:40;95272.03;;;19.31;100.00
20077;BME280;12348;42.710;23.378;2023-08-24T03:46:06;95264.75;;;19.35;100.00
20077;BME280;12348;42.710;23.378;2023-08-24T03:48:33;95270.66;;;19.37;100.00
20077;BME280;12348;42.710;23.378;2023-08-24T03:51:00;95272.34;;;19.42;100.00
20077;BME280;12348;42.710;23.378;2023-08-24T03:53:28;95282.38;;;19.37;100.00
20077;BME280;12348;42.710;23.378;2023-08-24T03:55:55;95280.91;;;19.28;100.00
20077;BME280;12348;42.710;23.378;2023-08-24T03:58:22;95276.59;;;19.39;100.00
20077;BME280;12348;42.710;23.378;2023-08-24T04:00:53;95284.53;;;19.44;100.00
20077;BME280;12348;42.710;23.378;2023-08-24T04:03:20;95281.13;;;19.47;100.00
20077;BME280;12348;42.710;23.378;2023-08-24T04:05:47;95282.59;;;19.45;100.00
20077;BME280;12348;42.710;23.378;2023-08-24T04:08:14;95282.50;;;19.53;100.00
20077;BME280;12348;42.710;23.378;2023-08-24T04:10:41;95281.56;;;19.61;100.00
20077;BME280;12348;42.710;23.378;2023-08-24T04:13:08;95272.91;;;19.59;100.00
20077;BME280;12348;42.710;23.378;2023-08-24T04:15:34;95272.59;;;19.61;100.00
20077;BME280;12348;42.710;23.378;2023-08-24T04:18:03;95275.69;;;19.72;100.00
20077;BME280;12348;42.710;23.378;2023-08-24T04:20:30;95274.28;;;19.78;100.00
20077;BME280;12348;42.710;23.378;2023-08-24T04:22:58;95276.06;;;19.86;100.00
20077;BME280;12348;42.710;23.378;2023-08-24T04:25:25;95286.53;;;19.96;100.00
20077;BME280;12348;42.710;23.378;2023-08-24T04:27:52;95290.75;;;20.06;100.00
20077;BME280;12348;42.710;23.378;2023-08-24T04:30:19;95292.88;;;20.13;100.00
20077;BME280;12348;42.710;23.378;2023-08-24T04:32:46;95303.78;;;20.25;100.00
20077;BME280;12348;42.710;23.378;2023-08-24T04:35:15;95293.06;;;20.32;100.00
20077;BME280;12348;42.710;23.378;2023-08-24T04:37:40;95284.13;;;20.35;100.00
20077;BME280;12348;42.710;23.378;2023-08-24T04:40:08;95286.38;;;20.45;100.00
20077;BME280;12348;42.710;23.378;2023-08-24T04:42:36;95283.72;;;20.49;100.00
20077;BME280;12348;42.710;23.378;2023-08-24T04:45:03;95287.16;;;20.46;100.00
20077;BME280;12348;42.710;23.378;2023-08-24T04:47:30;95284.22;;;20.51;100.00
20077;BME280;12348;42.710;23.378;2023-08-24T04:49:57;95283.16;;;20.55;100.00
20077;BME280;12348;42.710;23.378;2023-08-24T04:52:25;95286.28;;;20.70;100.00
20077;BME280;12348;42.710;23.378;2023-08-24T04:54:52;95281.72;;;20.90;100.00
20077;BME280;12348;42.710;23.378;2023-08-24T04:57:19;95288.78;;;20.91;100.00
20077;BME280;12348;42.710;23.378;2023-08-24T04:59:46;95283.84;;;20.96;100.00
20077;BME280;12348;42.710;23.378;2023-08-24T05:02:13;95291.09;;;21.20;100.00
20077;BME280;12348;42.710;23.378;2023-08-24T05:04:40;95294.91;;;21.31;100.00
20077;BME280;12348;42.710;23.378;2023-08-24T05:07:07;95293.88;;;21.52;100.00
20077;BME280;12348;42.710;23.378;2023-08-24T05:09:35;95304.06;;;21.87;100.00
20077;BME280;12348;42.710;23.378;2023-08-24T05:12:02;95305.22;;;22.21;100.00
20077;BME280;12348;42.710;23.378;2023-08-24T05:14:29;95307.16;;;22.40;100.00
20077;BME280;12348;42.710;23.378;2023-08-24T05:16:58;95307.94;;;22.79;100.00
20077;BME280;12348;42.710;23.378;2023-08-24T05:19:25;95311.13;;;23.96;100.00
20077;BME280;12348;42.710;23.378;2023-08-24T05:21:51;95318.97;;;23.94;100.00
20077;BME280;12348;42.710;23.378;2023-08-24T05:24:19;95322.47;;;23.45;100.00
20077;BME280;12348;42.710;23.378;2023-08-24T05:26:47;95323.75;;;23.05;100.00
20077;BME280;12348;42.710;23.378;2023-08-24T05:29:14;95321.31;;;23.00;100.00
20077;BME280;12348;42.710;23.378;2023-08-24T05:31:41;95319.94;;;22.90;100.00
20077;BME280;12348;42.710;23.378;2023-08-24T05:34:08;95319.41;;;22.85;100.00
20077;BME280;12348;42.710;23.378;2023-08-24T05:36:34;95314.22;;;22.99;100.00
20077;BME280;12348;42.710;23.378;2023-08-24T05:39:01;95322.09;;;22.81;100.00
20077;BME280;12348;42.710;23.378;2023-08-24T05:41:28;95319.19;;;23.13;100.00
20077;BME280;12348;42.710;23.378;2023-08-24T05:43:57;95321.06;;;23.55;100.00
20077;BME280;12348;42.710;23.378;2023-08-24T05:46:23;95316.69;;;24.00;100.00
20077;BME280;12348;42.710;23.378;2023-08-24T05:48:50;95316.00;;;24.06;100.00
20077;BME280;12348;42.710;23.378;2023-08-24T05:51:17;95319.16;;;24.38;100.00
20077;BME280;12348;42.710;23.378;2023-08-24T05:53:43;95330.78;;;24.51;100.00
20077;BME280;12348;42.710;23.378;2023-08-24T05:56:10;95326.69;;;25.09;100.00
20077;BME280;12348;42.710;23.378;2023-08-24T05:58:37;95324.13;;;25.71;93.37
20077;BME280;12348;42.710;23.378;2023-08-24T06:01:05;95322.56;;;26.25;90.76
20077;BME280;12348;42.710;23.378;2023-08-24T06:03:33;95327.34;;;27.26;85.12
20077;BME280;12348;42.710;23.378;2023-08-24T06:06:01;95332.88;;;28.19;78.07
20077;BME280;12348;42.710;23.378;2023-08-24T06:08:28;95325.22;;;29.54;72.45
20077;BME280;12348;42.710;23.378;2023-08-24T06:10:56;95326.69;;;32.02;62.84
20077;BME280;12348;42.710;23.378;2023-08-24T06:13:23;95335.16;;;32.18;61.66
20077;BME280;12348;42.710;23.378;2023-08-24T06:15:50;95327.50;;;32.22;60.38
20077;BME280;12348;42.710;23.378;2023-08-24T06:18:18;95321.09;;;33.45;55.62
20077;BME280;12348;42.710;23.378;2023-08-24T06:20:45;95325.63;;;33.39;55.20
20077;BME280;12348;42.710;23.378;2023-08-24T06:23:14;95325.47;;;35.69;48.26
20077;BME280;12348;42.710;23.378;2023-08-24T06:25:41;95321.78;;;34.01;51.52
20077;BME280;12348;42.710;23.378;2023-08-24T06:28:08;95319.84;;;33.46;54.38
20077;BME280;12348;42.710;23.378;2023-08-24T06:30:37;95330.00;;;35.25;50.07
20077;BME280;12348;42.710;23.378;2023-08-24T06:33:05;95331.78;;;36.69;44.13
20077;BME280;12348;42.710;23.378;2023-08-24T06:35:34;95330.03;;;34.38;49.34
20077;BME280;12348;42.710;23.378;2023-08-24T06:38:00;95331.34;;;35.08;47.44
20077;BME280;12348;42.710;23.378;2023-08-24T06:40:27;95327.88;;;34.29;49.11
20077;BME280;12348;42.710;23.378;2023-08-24T06:42:54;95325.59;;;32.82;53.62
20077;BME280;12348;42.710;23.378;2023-08-24T06:45:21;95331.38;;;34.17;51.00
20077;BME280;12348;42.710;23.378;2023-08-24T06:47:48;95328.91;;;35.35;47.42
20077;BME280;12348;42.710;23.378;2023-08-24T06:50:15;95330.25;;;35.31;48.01
20077;BME280;12348;42.710;23.378;2023-08-24T06:52:43;95323.63;;;36.14;45.63
20077;BME280;12348;42.710;23.378;2023-08-24T06:55:10;95321.50;;;34.87;47.70
20077;BME280;12348;42.710;23.378;2023-08-24T06:57:37;95325.09;;;33.44;52.30
20077;BME280;12348;42.710;23.378;2023-08-24T07:00:05;95315.38;;;33.68;51.56
20077;BME280;12348;42.710;23.378;2023-08-24T07:02:34;95318.13;;;34.79;48.45
20077;BME280;12348;42.710;23.378;2023-08-24T07:05:00;95322.72;;;34.11;50.38
20077;BME280;12348;42.710;23.378;2023-08-24T07:07:33;95316.41;;;34.40;50.58
20077;BME280;12348;42.710;23.378;2023-08-24T07:10:01;95316.75;;;36.62;43.48
20077;BME280;12348;42.710;23.378;2023-08-24T07:12:28;95320.50;;;35.22;45.96
20077;BME280;12348;42.710;23.378;2023-08-24T07:14:55;95312.09;;;34.35;49.46
20077;BME280;12348;42.710;23.378;2023-08-24T07:17:22;95311.09;;;36.75;43.35
20077;BME280;12348;42.710;23.378;2023-08-24T07:19:48;95307.94;;;38.38;39.57
20077;BME280;12348;42.710;23.378;2023-08-24T07:22:15;95310.91;;;39.08;37.64
20077;BME280;12348;42.710;23.378;2023-08-24T07:24:42;95309.72;;;39.51;36.46
20077;BME280;12348;42.710;23.378;2023-08-24T07:27:10;95306.81;;;39.09;36.92
20077;BME280;12348;42.710;23.378;2023-08-24T07:29:37;95306.28;;;37.60;40.59
20077;BME280;12348;42.710;23.378;2023-08-24T07:32:04;95300.59;;;38.50;38.72
20077;BME280;12348;42.710;23.378;2023-08-24T07:34:31;95307.28;;;37.75;39.55
20077;BME280;12348;42.710;23.378;2023-08-24T07:36:57;95308.41;;;38.46;38.79
20077;BME280;12348;42.710;23.378;2023-08-24T07:39:24;95302.13;;;39.06;38.10
20077;BME280;12348;42.710;23.378;2023-08-24T07:41:51;95304.59;;;39.32;36.48
20077;BME280;12348;42.710;23.378;2023-08-24T07:44:19;95311.47;;;40.63;34.99
20077;BME280;12348;42.710;23.378;2023-08-24T07:46:47;95303.38;;;40.47;34.52
20077;BME280;12348;42.710;23.378;2023-08-24T07:49:14;95293.94;;;41.78;32.49
20077;BME280;12348;42.710;23.378;2023-08-24T07:51:41;95304.25;;;42.51;30.88
20077;BME280;12348;42.710;23.378;2023-08-24T07:54:09;95296.31;;;42.76;30.83
20077;BME280;12348;42.710;23.378;2023-08-24T07:56:36;95292.31;;;40.97;32.81
20077;BME280;12348;42.710;23.378;2023-08-24T07:59:03;95285.75;;;40.13;33.62
20077;BME280;12348;42.710;23.378;2023-08-24T08:01:31;95293.13;;;37.48;37.63
20077;BME280;12348;42.710;23.378;2023-08-24T08:03:58;95287.03;;;37.18;40.49
20077;BME280;12348;42.710;23.378;2023-08-24T08:06:25;95289.50;;;40.19;34.07
20077;BME280;12348;42.710;23.378;2023-08-24T08:08:53;95287.91;;;40.96;33.10
20077;BME280;12348;42.710;23.378;2023-08-24T08:11:20;95297.84;;;40.77;32.78
20077;BME280;12348;42.710;23.378;2023-08-24T08:13:47;95295.44;;;40.99;32.83
20077;BME280;12348;42.710;23.378;2023-08-24T08:16:14;95292.94;;;40.62;33.35
20077;BME280;12348;42.710;23.378;2023-08-24T08:18:42;95286.78;;;41.32;32.30
20077;BME280;12348;42.710;23.378;2023-08-24T08:21:09;95283.78;;;40.29;33.70
20077;BME280;12348;42.710;23.378;2023-08-24T08:23:37;95279.03;;;40.35;33.45
20077;BME280;12348;42.710;23.378;2023-08-24T08:26:04;95280.38;;;39.91;34.04
20077;BME280;12348;42.710;23.378;2023-08-24T08:28:31;95282.75;;;40.17;33.45
20077;BME280;12348;42.710;23.378;2023-08-24T08:31:00;95286.00;;;39.58;34.01
20077;BME280;12348;42.710;23.378;2023-08-24T08:33:27;95283.38;;;41.13;32.26
20077;BME280;12348;42.710;23.378;2023-08-24T08:35:56;95276.94;;;39.54;33.64
20077;BME280;12348;42.710;23.378;2023-08-24T08:38:22;95272.78;;;40.31;33.58
20077;BME280;12348;42.710;23.378;2023-08-24T08:40:51;95275.16;;;41.15;32.12
20077;BME280;12348;42.710;23.378;2023-08-24T08:43:21;95271.88;;;42.17;30.47
20077;BME280;12348;42.710;23.378;2023-08-24T08:45:49;95267.25;;;42.20;30.56
20077;BME280;12348;42.710;23.378;2023-08-24T08:48:16;95262.66;;;43.09;29.31
20077;BME280;12348;42.710;23.378;2023-08-24T08:50:43;95268.47;;;43.52;28.34
20077;BME280;12348;42.710;23.378;2023-08-24T08:53:11;95264.53;;;42.25;29.80
20077;BME280;12348;42.710;23.378;2023-08-24T08:55:38;95253.25;;;42.10;30.30
20077;BME280;12348;42.710;23.378;2023-08-24T08:58:05;95251.28;;;40.72;31.21
20077;BME280;12348;42.710;23.378;2023-08-24T09:00:32;95248.63;;;40.30;32.03
20077;BME280;12348;42.710;23.378;2023-08-24T09:03:00;95248.97;;;41.00;31.62
20077;BME280;12348;42.710;23.378;2023-08-24T09:05:28;95242.31;;;41.48;30.94
20077;BME280;12348;42.710;23.378;2023-08-24T09:07:56;95239.09;;;41.90;30.44
20077;BME280;12348;42.710;23.378;2023-08-24T09:10:26;95239.31;;;41.72;29.95
20077;BME280;12348;42.710;23.378;2023-08-24T09:12:53;95229.91;;;42.36;29.98
20077;BME280;12348;42.710;23.378;2023-08-24T09:15:25;95233.94;;;43.02;29.09
20077;BME280;12348;42.710;23.378;2023-08-24T09:17:54;95221.78;;;43.53;28.52
20077;BME280;12348;42.710;23.378;2023-08-24T09:20:21;95217.16;;;41.85;30.38
20077;BME280;12348;42.710;23.378;2023-08-24T09:22:48;95220.84;;;42.11;30.02
20077;BME280;12348;42.710;23.378;2023-08-24T09:25:16;95217.16;;;41.50;30.79
20077;BME280;12348;42.710;23.378;2023-08-24T09:27:44;95211.03;;;42.53;30.06
20077;BME280;12348;42.710;23.378;2023-08-24T09:30:11;95204.94;;;43.13;28.94
20077;BME280;12348;42.710;23.378;2023-08-24T09:32:38;95203.91;;;41.41;30.97
20077;BME280;12348;42.710;23.378;2023-08-24T09:35:08;95199.78;;;41.57;30.95
20077;BME280;12348;42.710;23.378;2023-08-24T09:37:35;95189.94;;;42.28;30.29
20077;BME280;12348;42.710;23.378;2023-08-24T09:40:03;95195.50;;;42.23;29.66
20077;BME280;12348;42.710;23.378;2023-08-24T09:42:37;95192.41;;;41.45;30.76
20077;BME280;12348;42.710;23.378;2023-08-24T09:45:06;95185.91;;;41.59;31.12
20077;BME280;12348;42.710;23.378;2023-08-24T09:47:35;95182.53;;;41.75;30.35
20077;BME280;12348;42.710;23.378;2023-08-24T09:50:02;95185.41;;;41.25;30.82
20077;BME280;12348;42.710;23.378;2023-08-24T09:52:31;95179.16;;;40.47;32.27
20077;BME280;12348;42.710;23.378;2023-08-24T09:55:02;95173.94;;;41.84;30.66
20077;BME280;12348;42.710;23.378;2023-08-24T09:57:32;95170.72;;;42.38;29.74
20077;BME280;12348;42.710;23.378;2023-08-24T10:00:05;95162.78;;;43.26;28.58
20077;BME280;12348;42.710;23.378;2023-08-24T10:02:36;95173.34;;;42.68;28.95
20077;BME280;12348;42.710;23.378;2023-08-24T10:05:04;95165.88;;;43.28;28.40
20077;BME280;12348;42.710;23.378;2023-08-24T10:07:33;95166.09;;;41.94;29.41
20077;BME280;12348;42.710;23.378;2023-08-24T10:10:03;95160.00;;;43.05;28.66
20077;BME280;12348;42.710;23.378;2023-08-24T10:12:35;95154.91;;;42.78;28.83
20077;BME280;12348;42.710;23.378;2023-08-24T10:15:05;95149.19;;;43.78;27.88
20077;BME280;12348;42.710;23.378;2023-08-24T10:17:33;95149.75;;;44.76;26.69
20077;BME280;12348;42.710;23.378;2023-08-24T10:20:01;95142.06;;;44.00;27.21
20077;BME280;12348;42.710;23.378;2023-08-24T10:22:34;95154.06;;;42.72;28.90
20077;BME280;12348;42.710;23.378;2023-08-24T10:25:02;95157.75;;;41.00;31.01
20077;BME280;12348;42.710;23.378;2023-08-24T10:27:29;95145.16;;;37.81;35.68
20077;BME280;12348;42.710;23.378;2023-08-24T10:29:56;95147.34;;;37.50;38.03
20077;BME280;12348;42.710;23.378;2023-08-24T10:32:26;95135.22;;;37.22;39.06
20077;BME280;12348;42.710;23.378;2023-08-24T10:34:53;95141.28;;;36.80;39.13
20077;BME280;12348;42.710;23.378;2023-08-24T10:37:25;95129.16;;;35.73;42.33
20077;BME280;12348;42.710;23.378;2023-08-24T10:40:04;95139.50;;;34.23;47.35
20077;BME280;12348;42.710;23.378;2023-08-24T10:42:43;95139.47;;;33.65;49.42
20077;BME280;12348;42.710;23.378;2023-08-24T10:45:12;95149.44;;;33.00;52.42
20077;BME280;12348;42.710;23.378;2023-08-24T10:47:44;95142.34;;;32.79;54.07
20077;BME280;12348;42.710;23.378;2023-08-24T10:50:12;95141.84;;;33.01;54.19
20077;BME280;12348;42.710;23.378;2023-08-24T10:52:43;95143.34;;;33.05;54.42
20077;BME280;12348;42.710;23.378;2023-08-24T10:55:24;95152.38;;;32.93;56.08
20077;BME280;12348;42.710;23.378;2023-08-24T10:58:00;95155.91;;;32.61;57.64
20077;BME280;12348;42.710;23.378;2023-08-24T11:00:29;95156.56;;;32.49;53.87
20077;BME280;12348;42.710;23.378;2023-08-24T11:02:57;95143.47;;;32.26;53.52
20077;BME280;12348;42.710;23.378;2023-08-24T11:05:25;95134.00;;;32.43;54.76
20077;BME280;12348;42.710;23.378;2023-08-24T11:07:55;95141.50;;;32.46;54.08
20077;BME280;12348;42.710;23.378;2023-08-24T11:10:25;95138.19;;;32.51;54.65
20077;BME280;12348;42.710;23.378;2023-08-24T11:13:08;95139.13;;;32.25;54.85
20077;BME280;12348;42.710;23.378;2023-08-24T11:15:40;95133.38;;;32.16;55.70
20077;BME280;12348;42.710;23.378;2023-08-24T11:18:28;95121.94;;;32.10;55.14
20077;BME280;12348;42.710;23.378;2023-08-24T11:20:56;95116.56;;;31.99;55.91
20077;BME280;12348;42.710;23.378;2023-08-24T11:23:24;95120.13;;;32.00;56.59
20077;BME280;12348;42.710;23.378;2023-08-24T11:25:55;95118.47;;;31.82;58.24
20077;BME280;12348;42.710;23.378;2023-08-24T11:28:23;95131.19;;;31.63;58.78
20077;BME280;12348;42.710;23.378;2023-08-24T11:30:51;95129.44;;;31.50;60.10
20077;BME280;12348;42.710;23.378;2023-08-24T11:33:27;95137.97;;;31.39;62.30
20077;BME280;12348;42.710;23.378;2023-08-24T11:35:55;95125.56;;;30.97;65.48
20077;BME280;12348;42.710;23.378;2023-08-24T11:38:21;95126.25;;;30.77;66.96
20077;BME280;12348;42.710;23.378;2023-08-24T11:40:48;95131.53;;;30.41;68.57
20077;BME280;12348;42.710;23.378;2023-08-24T11:43:24;95126.78;;;30.07;69.17
20077;BME280;12348;42.710;23.378;2023-08-24T11:45:53;95125.25;;;30.03;70.38
20077;BME280;12348;42.710;23.378;2023-08-24T11:48:24;95130.75;;;30.06;69.93
20077;BME280;12348;42.710;23.378;2023-08-24T11:50:50;95122.97;;;29.94;70.42
20077;BME280;12348;42.710;23.378;2023-08-24T11:53:19;95105.06;;;29.64;68.83
20077;BME280;12348;42.710;23.378;2023-08-24T11:55:45;95118.53;;;29.25;69.45
20077;BME280;12348;42.710;23.378;2023-08-24T11:58:15;95114.75;;;29.04;70.10
20077;BME280;12348;42.710;23.378;2023-08-24T12:00:45;95112.44;;;28.95;71.57
20077;BME280;12348;42.710;23.378;2023-08-24T12:03:12;95113.66;;;28.91;71.27
20077;BME280;12348;42.710;23.378;2023-08-24T12:05:39;95102.19;;;28.89;71.35
20077;BME280;12348;42.710;23.378;2023-08-24T12:08:06;95096.72;;;28.78;72.39
20077;BME280;12348;42.710;23.378;2023-08-24T12:10:33;95091.16;;;28.78;71.77
20077;BME280;12348;42.710;23.378;2023-08-24T12:13:02;95080.03;;;28.85;70.63
20077;BME280;12348;42.710;23.378;2023-08-24T12:15:29;95077.94;;;29.00;69.49
20077;BME280;12348;42.710;23.378;2023-08-24T12:17:57;95068.25;;;29.19;68.77
20077;BME280;12348;42.710;23.378;2023-08-24T12:20:33;95071.09;;;29.12;68.06
20077;BME280;12348;42.710;23.378;2023-08-24T12:22:59;95069.34;;;29.29;67.12
20077;BME280;12348;42.710;23.378;2023-08-24T12:25:26;95073.88;;;29.50;65.21
20077;BME280;12348;42.710;23.378;2023-08-24T12:28:08;95078.56;;;29.60;68.04
20077;BME280;12348;42.710;23.378;2023-08-24T12:30:46;95080.28;;;29.81;69.15
20077;BME280;12348;42.710;23.378;2023-08-24T12:33:25;95087.00;;;29.83;69.18
20077;BME280;12348;42.710;23.378;2023-08-24T12:35:52;95100.63;;;29.70;72.76
20077;BME280;12348;42.710;23.378;2023-08-24T12:38:19;95101.53;;;29.57;74.51
20077;BME280;12348;42.710;23.378;2023-08-24T12:40:45;95112.38;;;29.85;73.61
20077;BME280;12348;42.710;23.378;2023-08-24T12:43:12;95125.78;;;29.90;73.40
20077;BME280;12348;42.710;23.378;2023-08-24T12:45:39;95119.13;;;29.46;76.88
20077;BME280;12348;42.710;23.378;2023-08-24T12:48:06;95115.84;;;29.55;77.00
20077;BME280;12348;42.710;23.378;2023-08-24T12:50:35;95117.38;;;29.63;77.31
20077;BME280;12348;42.710;23.378;2023-08-24T12:53:02;95126.41;;;29.71;76.32